sensor_id;sensor_type;location;lat;lon;timestamp;temperature;humidity
28773;DHT22;15925;51.222;5.678;2023-06-05T00:00:41;16.50;99.40
28773;DHT22;15925;51.222;5.678;2023-06-05T00:03:08;16.60;99.40
28773;DHT22;15925;51.222;5.678;2023-06-05T00:05:33;16.50;99.50
28773;DHT22;15925;51.222;5.678;2023-06-05T00:08:00;16.40;99.60
28773;DHT22;15925;51.222;5.678;2023-06-05T00:10:26;16.40;99.70
28773;DHT22;15925;51.222;5.678;2023-06-05T00:12:53;16.40;99.90
28773;DHT22;15925;51.222;5.678;2023-06-05T00:15:18;16.30;99.90
28773;DHT22;15925;51.222;5.678;2023-06-05T00:17:44;16.30;99.90
28773;DHT22;15925;51.222;5.678;2023-06-05T00:20:10;16.30;99.90
28773;DHT22;15925;51.222;5.678;2023-06-05T00:22:37;16.20;99.90
28773;DHT22;15925;51.222;5.678;2023-06-05T00:25:04;16.10;99.90
28773;DHT22;15925;51.222;5.678;2023-06-05T00:27:30;16.10;99.90
28773;DHT22;15925;51.222;5.678;2023-06-05T00:29:56;16.20;99.90
28773;DHT22;15925;51.222;5.678;2023-06-05T00:32:22;16.20;99.90
28773;DHT22;15925;51.222;5.678;2023-06-05T00:34:47;16.10;99.90
28773;DHT22;15925;51.222;5.678;2023-06-05T00:37:15;16.10;99.90
28773;DHT22;15925;51.222;5.678;2023-06-05T00:39:41;16.10;99.90
28773;DHT22;15925;51.222;5.678;2023-06-05T00:42:07;15.90;99.90
28773;DHT22;15925;51.222;5.678;2023-06-05T00:44:34;15.80;99.90
28773;DHT22;15925;51.222;5.678;2023-06-05T00:47:00;15.80;99.90
28773;DHT22;15925;51.222;5.678;2023-06-05T00:49:26;15.80;99.90
28773;DHT22;15925;51.222;5.678;2023-06-05T00:51:54;15.80;99.90
28773;DHT22;15925;51.222;5.678;2023-06-05T00:54:19;15.80;99.90
28773;DHT22;15925;51.222;5.678;2023-06-05T00:56:46;15.60;99.90
28773;DHT22;15925;51.222;5.678;2023-06-05T00:59:12;15.70;99.90
28773;DHT22;15925;51.222;5.678;2023-06-05T01:01:39;15.60;99.90
28773;DHT22;15925;51.222;5.678;2023-06-05T01:04:06;15.60;99.90
28773;DHT22;15925;51.222;5.678;2023-06-05T01:06:31;15.40;99.90
28773;DHT22;15925;51.222;5.678;2023-06-05T01:09:00;15.50;99.90
28773;DHT22;15925;51.222;5.678;2023-06-05T01:11:49;15.50;99.90
28773;DHT22;15925;51.222;5.678;2023-06-05T01:14:22;15.40;99.90
28773;DHT22;15925;51.222;5.678;2023-06-05T01:16:51;15.50;99.90
28773;DHT22;15925;51.222;5.678;2023-06-05T01:19:22;15.50;99.90
28773;DHT22;15925;51.222;5.678;2023-06-05T01:21:51;15.40;99.90
28773;DHT22;15925;51.222;5.678;2023-06-05T01:24:17;15.40;99.90
28773;DHT22;15925;51.222;5.678;2023-06-05T01:29:20;15.20;99.90
28773;DHT22;15925;51.222;5.678;2023-06-05T01:31:46;15.20;99.90
28773;DHT22;15925;51.222;5.678;2023-06-05T01:34:13;15.20;99.90
28773;DHT22;15925;51.222;5.678;2023-06-05T01:36:45;15.10;99.90
28773;DHT22;15925;51.222;5.678;2023-06-05T01:39:12;15.20;99.90
28773;DHT22;15925;51.222;5.678;2023-06-05T01:41:38;15.10;99.90
28773;DHT22;15925;51.222;5.678;2023-06-05T01:44:05;15.00;99.90
28773;DHT22;15925;51.222;5.678;2023-06-05T01:46:33;15.00;99.90
28773;DHT22;15925;51.222;5.678;2023-06-05T01:48:59;14.90;99.90
28773;DHT22;15925;51.222;5.678;2023-06-05T01:51:26;14.90;99.90
28773;DHT22;15925;51.222;5.678;2023-06-05T01:53:53;14.80;99.90
28773;DHT22;15925;51.222;5.678;2023-06-05T01:56:18;14.90;99.90
28773;DHT22;15925;51.222;5.678;2023-06-05T01:58:47;14.80;99.90
28773;DHT22;15925;51.222;5.678;2023-06-05T02:01:13;14.80;99.90
28773;DHT22;15925;51.222;5.678;2023-06-05T02:03:41;14.70;99.90
28773;DHT22;15925;51.222;5.678;2023-06-05T02:06:13;14.70;99.90
28773;DHT22;15925;51.222;5.678;2023-06-05T02:08:39;14.70;99.90
28773;DHT22;15925;51.222;5.678;2023-06-05T02:11:05;14.70;99.90
28773;DHT22;15925;51.222;5.678;2023-06-05T02:13:38;14.80;99.90
28773;DHT22;15925;51.222;5.678;2023-06-05T02:16:07;14.80;99.90
28773;DHT22;15925;51.222;5.678;2023-06-05T02:18:34;14.80;99.90
28773;DHT22;15925;51.222;5.678;2023-06-05T02:21:02;14.70;99.90
28773;DHT22;15925;51.222;5.678;2023-06-05T02:23:28;14.70;99.90
28773;DHT22;15925;51.222;5.678;2023-06-05T02:25:55;14.60;99.90
28773;DHT22;15925;51.222;5.678;2023-06-05T02:28:20;14.60;99.90
28773;DHT22;15925;51.222;5.678;2023-06-05T02:30:46;14.50;99.90
28773;DHT22;15925;51.222;5.678;2023-06-05T02:33:13;14.50;99.90
28773;DHT22;15925;51.222;5.678;2023-06-05T02:35:40;14.60;99.90
28773;DHT22;15925;51.222;5.678;2023-06-05T02:38:07;14.60;99.90
28773;DHT22;15925;51.222;5.678;2023-06-05T02:40:33;14.50;99.90
28773;DHT22;15925;51.222;5.678;2023-06-05T02:42:59;14.60;99.90
28773;DHT22;15925;51.222;5.678;2023-06-05T02:45:26;14.40;99.90
28773;DHT22;15925;51.222;5.678;2023-06-05T02:47:52;14.40;99.90
28773;DHT22;15925;51.222;5.678;2023-06-05T02:50:18;14.40;99.90
28773;DHT22;15925;51.222;5.678;2023-06-05T02:52:49;14.40;99.90
28773;DHT22;15925;51.222;5.678;2023-06-05T02:55:24;14.40;99.90
28773;DHT22;15925;51.222;5.678;2023-06-05T02:57:52;14.40;99.90
28773;DHT22;15925;51.222;5.678;2023-06-05T03:00:25;14.30;99.90
28773;DHT22;15925;51.222;5.678;2023-06-05T03:02:53;14.30;99.90
28773;DHT22;15925;51.222;5.678;2023-06-05T03:05:24;14.30;99.90
28773;DHT22;15925;51.222;5.678;2023-06-05T03:07:52;14.40;99.90
28773;DHT22;15925;51.222;5.678;2023-06-05T03:10:22;14.30;99.90
28773;DHT22;15925;51.222;5.678;2023-06-05T03:12:48;14.20;99.90
28773;DHT22;15925;51.222;5.678;2023-06-05T03:15:13;14.20;99.90
28773;DHT22;15925;51.222;5.678;2023-06-05T03:17:41;14.20;99.90
28773;DHT22;15925;51.222;5.678;2023-06-05T03:20:07;14.00;99.90
28773;DHT22;15925;51.222;5.678;2023-06-05T03:22:35;14.10;99.90
28773;DHT22;15925;51.222;5.678;2023-06-05T03:25:01;14.10;99.90
28773;DHT22;15925;51.222;5.678;2023-06-05T03:27:27;14.10;99.90
28773;DHT22;15925;51.222;5.678;2023-06-05T03:29:54;14.10;99.90
28773;DHT22;15925;51.222;5.678;2023-06-05T03:32:22;14.10;99.90
28773;DHT22;15925;51.222;5.678;2023-06-05T03:34:47;13.90;99.90
28773;DHT22;15925;51.222;5.678;2023-06-05T03:37:16;14.00;99.90
28773;DHT22;15925;51.222;5.678;2023-06-05T03:39:43;13.90;99.90
28773;DHT22;15925;51.222;5.678;2023-06-05T03:42:10;13.80;99.90
28773;DHT22;15925;51.222;5.678;2023-06-05T03:44:36;13.80;99.90
28773;DHT22;15925;51.222;5.678;2023-06-05T03:47:02;13.80;99.90
28773;DHT22;15925;51.222;5.678;2023-06-05T03:49:29;13.80;99.90
28773;DHT22;15925;51.222;5.678;2023-06-05T03:51:56;13.90;99.90
28773;DHT22;15925;51.222;5.678;2023-06-05T03:54:29;13.80;99.90
28773;DHT22;15925;51.222;5.678;2023-06-05T03:56:58;13.90;99.90
28773;DHT22;15925;51.222;5.678;2023-06-05T03:59:26;13.90;99.90
28773;DHT22;15925;51.222;5.678;2023-06-05T04:01:58;13.80;99.90
28773;DHT22;15925;51.222;5.678;2023-06-05T04:04:26;13.80;99.90
28773;DHT22;15925;51.222;5.678;2023-06-05T04:06:54;13.80;99.90
28773;DHT22;15925;51.222;5.678;2023-06-05T04:09:21;13.70;99.90
28773;DHT22;15925;51.222;5.678;2023-06-05T04:11:47;13.80;99.90
28773;DHT22;15925;51.222;5.678;2023-06-05T04:14:14;13.80;99.90
28773;DHT22;15925;51.222;5.678;2023-06-05T04:16:40;13.80;99.90
28773;DHT22;15925;51.222;5.678;2023-06-05T04:19:11;13.80;99.90
28773;DHT22;15925;51.222;5.678;2023-06-05T04:21:39;13.70;99.90
28773;DHT22;15925;51.222;5.678;2023-06-05T04:24:06;13.70;99.90
28773;DHT22;15925;51.222;5.678;2023-06-05T04:26:38;13.70;99.90
28773;DHT22;15925;51.222;5.678;2023-06-05T04:29:04;13.80;99.90
28773;DHT22;15925;51.222;5.678;2023-06-05T04:31:31;13.60;99.90
28773;DHT22;15925;51.222;5.678;2023-06-05T04:33:58;13.60;99.90
28773;DHT22;15925;51.222;5.678;2023-06-05T04:36:25;13.60;99.90
28773;DHT22;15925;51.222;5.678;2023-06-05T04:38:51;13.60;99.90
28773;DHT22;15925;51.222;5.678;2023-06-05T04:41:17;13.60;99.90
28773;DHT22;15925;51.222;5.678;2023-06-05T04:43:43;13.40;99.90
28773;DHT22;15925;51.222;5.678;2023-06-05T04:46:08;13.50;99.90
28773;DHT22;15925;51.222;5.678;2023-06-05T04:48:34;13.50;99.90
28773;DHT22;15925;51.222;5.678;2023-06-05T04:51:00;13.50;99.90
28773;DHT22;15925;51.222;5.678;2023-06-05T04:53:26;13.60;99.90
28773;DHT22;15925;51.222;5.678;2023-06-05T04:55:58;13.50;99.90
28773;DHT22;15925;51.222;5.678;2023-06-05T04:58:31;13.50;99.90
28773;DHT22;15925;51.222;5.678;2023-06-05T05:00:59;13.50;99.90
28773;DHT22;15925;51.222;5.678;2023-06-05T05:03:33;13.60;99.90
28773;DHT22;15925;51.222;5.678;2023-06-05T05:05:59;13.50;99.90
28773;DHT22;15925;51.222;5.678;2023-06-05T05:08:25;13.60;99.90
28773;DHT22;15925;51.222;5.678;2023-06-05T05:10:53;13.60;99.90
28773;DHT22;15925;51.222;5.678;2023-06-05T05:13:19;13.60;99.90
28773;DHT22;15925;51.222;5.678;2023-06-05T05:15:46;13.70;99.90
28773;DHT22;15925;51.222;5.678;2023-06-05T05:18:12;13.60;99.90
28773;DHT22;15925;51.222;5.678;2023-06-05T05:20:38;13.70;99.90
28773;DHT22;15925;51.222;5.678;2023-06-05T05:23:04;13.60;99.90
28773;DHT22;15925;51.222;5.678;2023-06-05T05:25:33;13.70;99.90
28773;DHT22;15925;51.222;5.678;2023-06-05T05:27:59;13.50;99.90
28773;DHT22;15925;51.222;5.678;2023-06-05T05:30:26;13.60;99.90
28773;DHT22;15925;51.222;5.678;2023-06-05T05:32:53;13.70;99.90
28773;DHT22;15925;51.222;5.678;2023-06-05T05:35:19;13.60;99.90
28773;DHT22;15925;51.222;5.678;2023-06-05T05:37:46;13.60;99.90
28773;DHT22;15925;51.222;5.678;2023-06-05T05:40:12;13.80;99.90
28773;DHT22;15925;51.222;5.678;2023-06-05T05:42:37;13.70;99.90
28773;DHT22;15925;51.222;5.678;2023-06-05T05:45:03;13.80;99.90
28773;DHT22;15925;51.222;5.678;2023-06-05T05:47:29;13.70;99.90
28773;DHT22;15925;51.222;5.678;2023-06-05T05:49:55;13.80;99.90
28773;DHT22;15925;51.222;5.678;2023-06-05T05:52:20;13.80;99.90
28773;DHT22;15925;51.222;5.678;2023-06-05T05:54:48;13.90;99.90
28773;DHT22;15925;51.222;5.678;2023-06-05T05:57:13;13.80;99.90
28773;DHT22;15925;51.222;5.678;2023-06-05T05:59:39;13.90;99.90
28773;DHT22;15925;51.222;5.678;2023-06-05T06:02:06;14.00;99.90
28773;DHT22;15925;51.222;5.678;2023-06-05T06:04:35;14.00;99.90
28773;DHT22;15925;51.222;5.678;2023-06-05T06:07:01;14.10;99.90
28773;DHT22;15925;51.222;5.678;2023-06-05T06:09:26;14.10;99.90
28773;DHT22;15925;51.222;5.678;2023-06-05T06:11:52;14.10;99.90
28773;DHT22;15925;51.222;5.678;2023-06-05T06:14:24;14.20;99.90
28773;DHT22;15925;51.222;5.678;2023-06-05T06:16:51;14.20;99.90
28773;DHT22;15925;51.222;5.678;2023-06-05T06:19:16;14.20;99.90
28773;DHT22;15925;51.222;5.678;2023-06-05T06:21:42;14.30;99.90
28773;DHT22;15925;51.222;5.678;2023-06-05T06:24:08;14.30;99.90
28773;DHT22;15925;51.222;5.678;2023-06-05T06:26:34;14.30;99.90
28773;DHT22;15925;51.222;5.678;2023-06-05T06:29:04;14.40;99.90
28773;DHT22;15925;51.222;5.678;2023-06-05T06:31:30;14.40;99.90
28773;DHT22;15925;51.222;5.678;2023-06-05T06:33:55;14.50;99.90
28773;DHT22;15925;51.222;5.678;2023-06-05T06:36:22;14.50;99.90
28773;DHT22;15925;51.222;5.678;2023-06-05T06:38:47;14.50;99.90
28773;DHT22;15925;51.222;5.678;2023-06-05T06:41:13;14.50;99.90
28773;DHT22;15925;51.222;5.678;2023-06-05T06:43:39;14.70;99.90
28773;DHT22;15925;51.222;5.678;2023-06-05T06:46:06;14.80;99.90
28773;DHT22;15925;51.222;5.678;2023-06-05T06:48:32;14.90;99.90
28773;DHT22;15925;51.222;5.678;2023-06-05T06:50:58;14.90;99.90
28773;DHT22;15925;51.222;5.678;2023-06-05T06:53:23;15.00;99.90
28773;DHT22;15925;51.222;5.678;2023-06-05T06:55:49;15.00;99.90
28773;DHT22;15925;51.222;5.678;2023-06-05T06:58:15;15.10;99.90
28773;DHT22;15925;51.222;5.678;2023-06-05T07:00:41;15.10;99.90
28773;DHT22;15925;51.222;5.678;2023-06-05T07:03:07;15.20;99.90
28773;DHT22;15925;51.222;5.678;2023-06-05T07:05:33;15.30;99.90
28773;DHT22;15925;51.222;5.678;2023-06-05T07:07:59;15.30;99.90
28773;DHT22;15925;51.222;5.678;2023-06-05T07:10:29;15.40;99.90
28773;DHT22;15925;51.222;5.678;2023-06-05T07:12:55;15.40;99.90
28773;DHT22;15925;51.222;5.678;2023-06-05T07:15:23;15.50;99.90
28773;DHT22;15925;51.222;5.678;2023-06-05T07:17:50;15.50;99.90
28773;DHT22;15925;51.222;5.678;2023-06-05T07:20:15;15.60;99.90
28773;DHT22;15925;51.222;5.678;2023-06-05T07:22:42;15.70;99.90
28773;DHT22;15925;51.222;5.678;2023-06-05T07:25:08;15.80;99.90
28773;DHT22;15925;51.222;5.678;2023-06-05T07:27:34;15.90;99.90
28773;DHT22;15925;51.222;5.678;2023-06-05T07:30:01;15.90;99.90
28773;DHT22;15925;51.222;5.678;2023-06-05T07:32:27;16.00;99.90
28773;DHT22;15925;51.222;5.678;2023-06-05T07:34:53;16.00;99.90
28773;DHT22;15925;51.222;5.678;2023-06-05T07:37:19;16.00;99.90
28773;DHT22;15925;51.222;5.678;2023-06-05T07:39:45;16.10;99.90
28773;DHT22;15925;51.222;5.678;2023-06-05T07:42:12;16.20;99.90
28773;DHT22;15925;51.222;5.678;2023-06-05T07:44:39;16.20;99.90
28773;DHT22;15925;51.222;5.678;2023-06-05T07:47:04;16.30;99.90
28773;DHT22;15925;51.222;5.678;2023-06-05T07:49:31;16.40;99.90
28773;DHT22;15925;51.222;5.678;2023-06-05T07:51:59;16.40;99.90
28773;DHT22;15925;51.222;5.678;2023-06-05T07:54:25;16.50;99.90
28773;DHT22;15925;51.222;5.678;2023-06-05T07:56:51;16.60;99.90
28773;DHT22;15925;51.222;5.678;2023-06-05T07:59:16;16.60;99.90
28773;DHT22;15925;51.222;5.678;2023-06-05T08:01:47;16.70;99.90
28773;DHT22;15925;51.222;5.678;2023-06-05T08:04:14;16.70;99.90
28773;DHT22;15925;51.222;5.678;2023-06-05T08:06:40;16.80;99.90
28773;DHT22;15925;51.222;5.678;2023-06-05T08:09:07;16.90;99.90
28773;DHT22;15925;51.222;5.678;2023-06-05T08:11:36;17.00;99.90
28773;DHT22;15925;51.222;5.678;2023-06-05T08:14:02;17.10;99.90
28773;DHT22;15925;51.222;5.678;2023-06-05T08:16:29;17.30;99.90
28773;DHT22;15925;51.222;5.678;2023-06-05T08:18:55;17.30;99.90
28773;DHT22;15925;51.222;5.678;2023-06-05T08:21:20;17.30;99.90
28773;DHT22;15925;51.222;5.678;2023-06-05T08:23:46;17.40;99.90
28773;DHT22;15925;51.222;5.678;2023-06-05T08:26:12;17.50;99.90
28773;DHT22;15925;51.222;5.678;2023-06-05T08:28:38;17.60;99.90
28773;DHT22;15925;51.222;5.678;2023-06-05T08:31:05;17.70;99.90
28773;DHT22;15925;51.222;5.678;2023-06-05T08:33:33;17.80;99.90
28773;DHT22;15925;51.222;5.678;2023-06-05T08:35:59;17.80;99.90
28773;DHT22;15925;51.222;5.678;2023-06-05T08:38:25;17.90;99.90
28773;DHT22;15925;51.222;5.678;2023-06-05T08:41:00;17.90;99.90
28773;DHT22;15925;51.222;5.678;2023-06-05T08:43:26;18.10;99.90
28773;DHT22;15925;51.222;5.678;2023-06-05T08:45:53;18.20;99.90
28773;DHT22;15925;51.222;5.678;2023-06-05T08:48:20;18.30;99.90
28773;DHT22;15925;51.222;5.678;2023-06-05T08:50:47;18.30;99.90
28773;DHT22;15925;51.222;5.678;2023-06-05T08:53:13;18.40;99.90
28773;DHT22;15925;51.222;5.678;2023-06-05T08:55:42;18.60;99.90
28773;DHT22;15925;51.222;5.678;2023-06-05T08:58:08;18.60;99.90
28773;DHT22;15925;51.222;5.678;2023-06-05T09:00:35;18.70;99.90
28773;DHT22;15925;51.222;5.678;2023-06-05T09:03:00;18.70;99.90
28773;DHT22;15925;51.222;5.678;2023-06-05T09:05:26;18.90;99.90
28773;DHT22;15925;51.222;5.678;2023-06-05T09:07:52;19.00;99.90
28773;DHT22;15925;51.222;5.678;2023-06-05T09:10:27;19.00;99.90
28773;DHT22;15925;51.222;5.678;2023-06-05T09:12:54;19.00;99.90
28773;DHT22;15925;51.222;5.678;2023-06-05T09:15:20;19.20;99.90
28773;DHT22;15925;51.222;5.678;2023-06-05T09:17:46;19.30;99.90
28773;DHT22;15925;51.222;5.678;2023-06-05T09:20:22;19.40;99.90
28773;DHT22;15925;51.222;5.678;2023-06-05T09:22:48;19.50;99.90
28773;DHT22;15925;51.222;5.678;2023-06-05T09:25:13;19.60;99.90
28773;DHT22;15925;51.222;5.678;2023-06-05T09:27:40;19.60;99.90
28773;DHT22;15925;51.222;5.678;2023-06-05T09:30:06;19.80;99.90
28773;DHT22;15925;51.222;5.678;2023-06-05T09:32:32;19.80;99.90
28773;DHT22;15925;51.222;5.678;2023-06-05T09:34:58;19.90;99.90
28773;DHT22;15925;51.222;5.678;2023-06-05T09:37:35;20.10;99.90
28773;DHT22;15925;51.222;5.678;2023-06-05T09:40:00;20.20;99.90
28773;DHT22;15925;51.222;5.678;2023-06-05T09:42:30;20.30;99.90
28773;DHT22;15925;51.222;5.678;2023-06-05T09:45:00;20.40;99.90
28773;DHT22;15925;51.222;5.678;2023-06-05T09:47:25;20.50;99.90
28773;DHT22;15925;51.222;5.678;2023-06-05T09:49:51;20.50;99.90
28773;DHT22;15925;51.222;5.678;2023-06-05T09:52:16;20.50;99.90
28773;DHT22;15925;51.222;5.678;2023-06-05T09:54:45;20.80;99.90
28773;DHT22;15925;51.222;5.678;2023-06-05T09:57:12;20.70;99.90
28773;DHT22;15925;51.222;5.678;2023-06-05T10:02:13;21.00;99.90
28773;DHT22;15925;51.222;5.678;2023-06-05T10:04:42;21.10;99.90
28773;DHT22;15925;51.222;5.678;2023-06-05T10:07:11;21.20;99.90
28773;DHT22;15925;51.222;5.678;2023-06-05T10:09:37;21.20;99.90
28773;DHT22;15925;51.222;5.678;2023-06-05T10:12:03;21.20;99.90
28773;DHT22;15925;51.222;5.678;2023-06-05T10:14:29;21.40;99.90
28773;DHT22;15925;51.222;5.678;2023-06-05T10:16:55;21.40;99.50
28773;DHT22;15925;51.222;5.678;2023-06-05T10:19:21;21.30;99.30
28773;DHT22;15925;51.222;5.678;2023-06-05T10:21:47;21.40;99.90
28773;DHT22;15925;51.222;5.678;2023-06-05T10:24:35;21.60;99.90
28773;DHT22;15925;51.222;5.678;2023-06-05T10:40:07;22.30;99.90
28773;DHT22;15925;51.222;5.678;2023-06-05T10:42:34;22.30;98.40
28773;DHT22;15925;51.222;5.678;2023-06-05T10:45:01;22.30;97.40
28773;DHT22;15925;51.222;5.678;2023-06-05T10:52:45;22.60;99.40
28773;DHT22;15925;51.222;5.678;2023-06-05T10:55:11;22.70;98.80
28773;DHT22;15925;51.222;5.678;2023-06-05T11:00:23;22.70;97.90
28773;DHT22;15925;51.222;5.678;2023-06-05T11:02:49;22.70;96.70
28773;DHT22;15925;51.222;5.678;2023-06-05T11:05:15;22.70;96.20
28773;DHT22;15925;51.222;5.678;2023-06-05T11:07:41;22.90;96.40
28773;DHT22;15925;51.222;5.678;2023-06-05T11:15:15;23.00;97.10
28773;DHT22;15925;51.222;5.678;2023-06-05T11:17:44;23.00;96.50
28773;DHT22;15925;51.222;5.678;2023-06-05T11:27:44;23.50;96.50
28773;DHT22;15925;51.222;5.678;2023-06-05T11:30:13;23.50;96.20
28773;DHT22;15925;51.222;5.678;2023-06-05T11:32:39;23.50;95.40
28773;DHT22;15925;51.222;5.678;2023-06-05T11:35:05;23.70;95.60
28773;DHT22;15925;51.222;5.678;2023-06-05T11:37:30;23.70;95.60
28773;DHT22;15925;51.222;5.678;2023-06-05T11:39:58;23.80;95.90
28773;DHT22;15925;51.222;5.678;2023-06-05T11:42:24;23.90;94.80
28773;DHT22;15925;51.222;5.678;2023-06-05T11:44:50;23.80;94.30
28773;DHT22;15925;51.222;5.678;2023-06-05T11:47:26;23.80;93.60
28773;DHT22;15925;51.222;5.678;2023-06-05T11:49:51;23.80;94.20
28773;DHT22;15925;51.222;5.678;2023-06-05T11:52:17;23.90;93.60
28773;DHT22;15925;51.222;5.678;2023-06-05T11:54:44;24.10;94.00
28773;DHT22;15925;51.222;5.678;2023-06-05T11:57:18;24.10;94.00
28773;DHT22;15925;51.222;5.678;2023-06-05T11:59:44;24.10;92.80
28773;DHT22;15925;51.222;5.678;2023-06-05T12:02:10;24.10;92.20
28773;DHT22;15925;51.222;5.678;2023-06-05T12:04:38;24.20;92.20
28773;DHT22;15925;51.222;5.678;2023-06-05T12:07:05;24.20;92.00
28773;DHT22;15925;51.222;5.678;2023-06-05T12:09:31;24.20;91.60
28773;DHT22;15925;51.222;5.678;2023-06-05T12:12:06;24.20;91.90
28773;DHT22;15925;51.222;5.678;2023-06-05T12:14:32;24.20;92.10
28773;DHT22;15925;51.222;5.678;2023-06-05T12:16:58;24.20;90.50
28773;DHT22;15925;51.222;5.678;2023-06-05T12:19:24;24.40;91.80
28773;DHT22;15925;51.222;5.678;2023-06-05T12:21:50;24.40;90.20
28773;DHT22;15925;51.222;5.678;2023-06-05T12:24:24;24.60;91.70
28773;DHT22;15925;51.222;5.678;2023-06-05T12:26:51;24.70;90.90
28773;DHT22;15925;51.222;5.678;2023-06-05T12:29:19;24.70;90.00
28773;DHT22;15925;51.222;5.678;2023-06-05T12:31:46;24.80;89.20
28773;DHT22;15925;51.222;5.678;2023-06-05T12:34:11;24.90;88.30
28773;DHT22;15925;51.222;5.678;2023-06-05T12:36:38;24.80;85.90
28773;DHT22;15925;51.222;5.678;2023-06-05T12:39:05;24.80;87.30
28773;DHT22;15925;51.222;5.678;2023-06-05T12:41:33;24.90;88.80
28773;DHT22;15925;51.222;5.678;2023-06-05T12:44:03;25.10;88.90
28773;DHT22;15925;51.222;5.678;2023-06-05T12:46:30;25.20;90.70
28773;DHT22;15925;51.222;5.678;2023-06-05T12:48:56;25.20;88.40
28773;DHT22;15925;51.222;5.678;2023-06-05T12:51:23;25.40;88.00
28773;DHT22;15925;51.222;5.678;2023-06-05T12:53:50;25.60;87.90
28773;DHT22;15925;51.222;5.678;2023-06-05T12:56:15;25.60;84.80
28773;DHT22;15925;51.222;5.678;2023-06-05T12:58:41;25.70;86.90
28773;DHT22;15925;51.222;5.678;2023-06-05T13:01:08;25.60;84.80
28773;DHT22;15925;51.222;5.678;2023-06-05T13:03:34;25.60;82.20
28773;DHT22;15925;51.222;5.678;2023-06-05T13:06:02;25.60;81.20
28773;DHT22;15925;51.222;5.678;2023-06-05T13:08:29;25.70;82.70
28773;DHT22;15925;51.222;5.678;2023-06-05T13:10:55;25.90;84.00
28773;DHT22;15925;51.222;5.678;2023-06-05T13:13:21;25.90;83.40
28773;DHT22;15925;51.222;5.678;2023-06-05T13:15:47;25.80;83.10
28773;DHT22;15925;51.222;5.678;2023-06-05T13:18:12;25.60;82.30
28773;DHT22;15925;51.222;5.678;2023-06-05T13:20:38;25.80;84.40
28773;DHT22;15925;51.222;5.678;2023-06-05T13:23:04;25.60;81.00
28773;DHT22;15925;51.222;5.678;2023-06-05T13:25:30;25.60;81.80
28773;DHT22;15925;51.222;5.678;2023-06-05T13:27:57;25.60;81.20
28773;DHT22;15925;51.222;5.678;2023-06-05T13:30:23;25.70;81.90
28773;DHT22;15925;51.222;5.678;2023-06-05T13:32:49;25.70;82.30
28773;DHT22;15925;51.222;5.678;2023-06-05T13:35:18;25.80;81.80
28773;DHT22;15925;51.222;5.678;2023-06-05T13:37:43;25.90;83.10
28773;DHT22;15925;51.222;5.678;2023-06-05T13:40:09;25.90;80.70
28773;DHT22;15925;51.222;5.678;2023-06-05T13:42:35;25.90;79.50
28773;DHT22;15925;51.222;5.678;2023-06-05T13:45:01;25.90;81.20
28773;DHT22;15925;51.222;5.678;2023-06-05T13:47:27;25.70;79.60
28773;DHT22;15925;51.222;5.678;2023-06-05T13:49:52;25.70;80.70
28773;DHT22;15925;51.222;5.678;2023-06-05T13:52:23;25.60;82.60
28773;DHT22;15925;51.222;5.678;2023-06-05T13:54:48;25.80;81.30
28773;DHT22;15925;51.222;5.678;2023-06-05T13:57:14;25.70;78.50
28773;DHT22;15925;51.222;5.678;2023-06-05T13:59:42;25.90;80.20
28773;DHT22;15925;51.222;5.678;2023-06-05T14:02:08;25.90;79.20
28773;DHT22;15925;51.222;5.678;2023-06-05T14:04:35;25.90;78.80
28773;DHT22;15925;51.222;5.678;2023-06-05T14:07:00;25.90;80.60
28773;DHT22;15925;51.222;5.678;2023-06-05T14:09:26;26.00;80.90
28773;DHT22;15925;51.222;5.678;2023-06-05T14:11:52;25.90;76.40
28773;DHT22;15925;51.222;5.678;2023-06-05T14:14:18;26.00;77.70
28773;DHT22;15925;51.222;5.678;2023-06-05T14:16:44;26.10;77.90
28773;DHT22;15925;51.222;5.678;2023-06-05T14:19:09;26.20;80.50
28773;DHT22;15925;51.222;5.678;2023-06-05T14:21:35;26.00;78.70
28773;DHT22;15925;51.222;5.678;2023-06-05T14:24:03;25.90;78.60
28773;DHT22;15925;51.222;5.678;2023-06-05T14:26:29;26.10;79.80
28773;DHT22;15925;51.222;5.678;2023-06-05T14:28:55;26.00;78.80
28773;DHT22;15925;51.222;5.678;2023-06-05T14:31:20;25.80;77.40
28773;DHT22;15925;51.222;5.678;2023-06-05T14:33:51;25.70;77.70
28773;DHT22;15925;51.222;5.678;2023-06-05T14:36:16;25.80;77.00
28773;DHT22;15925;51.222;5.678;2023-06-05T14:38:43;25.70;74.30
28773;DHT22;15925;51.222;5.678;2023-06-05T14:41:08;25.90;75.40
28773;DHT22;15925;51.222;5.678;2023-06-05T14:43:34;25.90;74.60
28773;DHT22;15925;51.222;5.678;2023-06-05T14:46:00;26.00;76.90
28773;DHT22;15925;51.222;5.678;2023-06-05T14:48:26;26.10;78.40
28773;DHT22;15925;51.222;5.678;2023-06-05T14:50:52;26.00;73.80
28773;DHT22;15925;51.222;5.678;2023-06-05T14:53:18;25.80;73.10
28773;DHT22;15925;51.222;5.678;2023-06-05T14:55:44;25.80;73.70
28773;DHT22;15925;51.222;5.678;2023-06-05T14:58:10;25.90;76.10
28773;DHT22;15925;51.222;5.678;2023-06-05T15:00:36;25.80;75.00
28773;DHT22;15925;51.222;5.678;2023-06-05T15:03:02;25.90;74.70
28773;DHT22;15925;51.222;5.678;2023-06-05T15:05:27;25.90;74.00
28773;DHT22;15925;51.222;5.678;2023-06-05T15:07:53;26.00;77.00
28773;DHT22;15925;51.222;5.678;2023-06-05T15:10:19;26.00;75.80
28773;DHT22;15925;51.222;5.678;2023-06-05T15:12:45;26.00;74.60
28773;DHT22;15925;51.222;5.678;2023-06-05T15:15:10;26.10;74.10
28773;DHT22;15925;51.222;5.678;2023-06-05T15:17:36;26.10;76.00
28773;DHT22;15925;51.222;5.678;2023-06-05T15:20:02;26.10;72.60
28773;DHT22;15925;51.222;5.678;2023-06-05T15:22:31;26.20;76.40
28773;DHT22;15925;51.222;5.678;2023-06-05T15:24:56;26.10;76.70
28773;DHT22;15925;51.222;5.678;2023-06-05T15:27:22;26.00;75.50
28773;DHT22;15925;51.222;5.678;2023-06-05T15:29:48;26.00;79.20
28773;DHT22;15925;51.222;5.678;2023-06-05T15:32:14;26.00;75.20
28773;DHT22;15925;51.222;5.678;2023-06-05T15:34:42;26.00;74.90
28773;DHT22;15925;51.222;5.678;2023-06-05T15:37:07;26.00;72.90
28773;DHT22;15925;51.222;5.678;2023-06-05T15:39:33;26.10;76.40
28773;DHT22;15925;51.222;5.678;2023-06-05T15:41:58;26.10;75.30
28773;DHT22;15925;51.222;5.678;2023-06-05T15:44:24;26.10;73.80
28773;DHT22;15925;51.222;5.678;2023-06-05T15:46:50;25.90;71.80
28773;DHT22;15925;51.222;5.678;2023-06-05T15:49:15;25.80;72.20
28773;DHT22;15925;51.222;5.678;2023-06-05T15:51:43;25.80;71.60
28773;DHT22;15925;51.222;5.678;2023-06-05T15:54:09;25.70;74.30
28773;DHT22;15925;51.222;5.678;2023-06-05T15:56:36;25.80;75.00
28773;DHT22;15925;51.222;5.678;2023-06-05T15:59:02;25.80;74.20
28773;DHT22;15925;51.222;5.678;2023-06-05T16:01:27;25.80;73.80
28773;DHT22;15925;51.222;5.678;2023-06-05T16:03:53;25.70;75.40
28773;DHT22;15925;51.222;5.678;2023-06-05T16:06:19;25.80;75.80